createdAt,value
2023-05-05T00:02:22.121Z,6.23
2023-05-05T00:04:50.017Z,6.31
2023-05-05T00:07:18.161Z,6.30
2023-05-05T00:09:46.260Z,6.32
2023-05-05T00:12:14.138Z,6.38
2023-05-05T00:14:42.351Z,6.30
2023-05-05T00:17:10.555Z,6.34
2023-05-05T00:19:38.543Z,6.24
2023-05-05T00:22:07.117Z,6.17
2023-05-05T00:24:35.311Z,6.21
2023-05-05T00:27:03.533Z,6.16
2023-05-05T00:29:31.756Z,6.19
2023-05-05T00:31:59.828Z,6.11
2023-05-05T00:34:27.696Z,6.16
2023-05-05T00:36:55.935Z,6.08
2023-05-05T00:39:24.660Z,6.17
2023-05-05T00:41:52.890Z,6.21
2023-05-05T00:44:40.328Z,6.29
2023-05-05T00:47:12.929Z,6.36
2023-05-05T00:49:41.289Z,6.33
2023-05-05T00:52:10.224Z,6.23
2023-05-05T00:54:38.971Z,6.27
2023-05-05T00:57:08.066Z,6.31
2023-05-05T00:59:36.960Z,6.39
2023-05-05T01:02:04.971Z,6.37
2023-05-05T01:04:33.105Z,6.39
2023-05-05T01:07:13.457Z,6.38
2023-05-05T01:10:22.358Z,6.27
2023-05-05T01:13:09.088Z,6.27
2023-05-05T01:16:03.230Z,6.38
2023-05-05T01:18:49.943Z,6.47
2023-05-05T01:21:29.731Z,6.52
2023-05-05T01:24:25.661Z,6.47
2023-05-05T01:27:32.061Z,6.34
2023-05-05T01:30:09.215Z,6.26
2023-05-05T01:32:49.488Z,6.33
2023-05-05T01:35:37.864Z,6.36
2023-05-05T01:38:16.753Z,6.29
2023-05-05T01:40:50.086Z,6.26
2023-05-05T01:43:23.599Z,6.28
2023-05-05T01:45:53.806Z,6.24
2023-05-05T01:48:24.772Z,6.22
2023-05-05T01:50:54.167Z,6.18
2023-05-05T01:53:26.073Z,6.07
2023-05-05T01:55:56.616Z,5.99
2023-05-05T01:58:27.179Z,5.94
2023-05-05T02:00:58.374Z,5.90
2023-05-05T02:03:27.698Z,5.84
2023-05-05T02:05:57.655Z,5.81
2023-05-05T02:08:27.044Z,5.85
2023-05-05T02:10:56.072Z,5.89
2023-05-05T02:13:26.371Z,5.87
2023-05-05T02:15:56.204Z,5.86
2023-05-05T02:18:27.265Z,5.88
2023-05-05T02:20:55.373Z,5.87
2023-05-05T02:23:23.808Z,5.85
2023-05-05T02:25:57.945Z,5.88
2023-05-05T02:29:20.006Z,5.92
2023-05-05T02:31:58.590Z,5.90
2023-05-05T02:34:32.151Z,5.90
2023-05-05T02:37:07.676Z,6.00
2023-05-05T02:39:58.763Z,6.06
2023-05-05T02:42:40.309Z,6.04
2023-05-05T02:45:17.752Z,6.10
2023-05-05T02:47:49.313Z,6.12
2023-05-05T02:50:17.496Z,6.04
2023-05-05T02:53:02.710Z,6.12
2023-05-05T02:55:38.405Z,6.11
2023-05-05T02:58:17.426Z,6.12
2023-05-05T03:01:18.158Z,6.10
2023-05-05T03:04:08.125Z,5.98
2023-05-05T03:06:43.684Z,5.91
2023-05-05T03:09:28.315Z,5.90
2023-05-05T03:12:07.173Z,5.85
2023-05-05T03:14:52.009Z,5.80
2023-05-05T03:17:22.336Z,5.79
2023-05-05T03:19:52.097Z,5.75
2023-05-05T03:22:20.830Z,5.76
2023-05-05T03:24:52.292Z,5.80
2023-05-05T03:27:24.533Z,5.82
2023-05-05T03:29:53.104Z,5.89
2023-05-05T03:32:23.867Z,5.92
2023-05-05T03:34:55.657Z,5.94
2023-05-05T03:37:29.288Z,5.95
2023-05-05T03:39:58.564Z,5.96
2023-05-05T03:42:27.175Z,6.02
2023-05-05T03:44:55.659Z,6.08
2023-05-05T03:47:25.029Z,6.10
2023-05-05T03:49:54.812Z,6.10
2023-05-05T03:52:22.832Z,6.10
2023-05-05T03:54:51.590Z,6.15
2023-05-05T03:57:19.774Z,6.26
2023-05-05T03:59:47.680Z,6.34
2023-05-05T04:02:18.461Z,6.43
2023-05-05T04:04:55.102Z,6.53
2023-05-05T04:07:23.993Z,6.64
2023-05-05T04:09:52.159Z,6.78
2023-05-05T04:12:20.118Z,6.89
2023-05-05T04:14:48.135Z,6.95
2023-05-05T04:17:16.426Z,7.06
2023-05-05T04:19:45.440Z,7.19
2023-05-05T04:22:14.419Z,7.14
2023-05-05T04:24:42.586Z,7.17
2023-05-05T04:27:11.021Z,7.38
2023-05-05T04:29:39.275Z,7.51
2023-05-05T04:32:07.405Z,7.70
2023-05-05T04:34:36.188Z,7.89
2023-05-05T04:37:04.553Z,8.03
2023-05-05T04:39:32.881Z,8.25
2023-05-05T04:42:02.312Z,8.34
2023-05-05T04:44:30.877Z,8.40
2023-05-05T04:47:00.988Z,8.55
2023-05-05T04:49:32.674Z,8.69
2023-05-05T04:52:02.526Z,8.74
2023-05-05T04:54:30.506Z,8.75
2023-05-05T04:56:59.487Z,8.70
2023-05-05T04:59:27.540Z,9.00
2023-05-05T05:01:56.133Z,9.50
2023-05-05T05:04:26.119Z,9.67
2023-05-05T05:06:54.923Z,10.24
2023-05-05T05:09:24.409Z,10.33
2023-05-05T05:11:52.401Z,10.53
2023-05-05T05:14:22.050Z,10.78
2023-05-05T05:16:53.498Z,11.13
2023-05-05T05:19:23.517Z,11.36
2023-05-05T05:21:51.914Z,11.51
2023-05-05T05:24:20.231Z,11.45
2023-05-05T05:26:49.095Z,11.59
2023-05-05T05:29:17.282Z,12.01
2023-05-05T05:31:45.677Z,12.45
2023-05-05T05:34:14.216Z,12.83
2023-05-05T05:36:43.348Z,13.17
2023-05-05T05:39:11.847Z,13.20
2023-05-05T05:41:40.082Z,13.20
2023-05-05T05:44:08.280Z,13.10
2023-05-05T05:46:36.447Z,13.31
2023-05-05T05:49:04.688Z,13.61
2023-05-05T05:51:32.995Z,13.72
2023-05-05T05:54:03.796Z,13.76
2023-05-05T05:56:32.124Z,13.77
2023-05-05T05:59:01.485Z,14.25
2023-05-05T06:01:29.680Z,14.89
2023-05-05T06:03:58.000Z,15.42
2023-05-05T06:06:26.397Z,15.18
2023-05-05T06:08:54.521Z,15.44
2023-05-05T06:11:22.954Z,15.55
2023-05-05T06:13:50.986Z,15.73
2023-05-05T06:16:19.124Z,15.87
2023-05-05T06:18:48.848Z,15.94
2023-05-05T06:21:20.722Z,15.87
2023-05-05T06:23:48.795Z,16.15
2023-05-05T06:26:17.567Z,16.27
2023-05-05T06:28:45.774Z,16.14
2023-05-05T06:31:15.409Z,16.28
2023-05-05T06:33:43.716Z,16.16
2023-05-05T06:36:11.912Z,16.07
2023-05-05T06:38:40.109Z,16.37
2023-05-05T06:41:08.034Z,16.62
2023-05-05T06:43:36.277Z,16.71
2023-05-05T06:46:09.230Z,16.67
2023-05-05T06:48:37.384Z,16.73
2023-05-05T06:51:05.432Z,16.77
2023-05-05T06:53:33.589Z,16.92
2023-05-05T06:56:01.703Z,16.43
2023-05-05T06:58:29.592Z,16.84
2023-05-05T07:00:57.690Z,16.58
2023-05-05T07:03:27.352Z,16.80
2023-05-05T07:05:55.758Z,17.24
2023-05-05T07:08:25.212Z,17.52
2023-05-05T07:10:53.495Z,17.33
2023-05-05T07:13:22.898Z,17.30
2023-05-05T07:15:52.588Z,17.69
2023-05-05T07:18:21.501Z,17.82
2023-05-05T07:20:49.562Z,17.93
2023-05-05T07:23:18.362Z,18.56
2023-05-05T07:25:46.426Z,18.55
2023-05-05T07:28:15.484Z,18.42
2023-05-05T07:30:43.679Z,18.14
2023-05-05T07:33:11.851Z,18.58
2023-05-05T07:35:40.406Z,18.42
2023-05-05T07:38:10.171Z,18.33
2023-05-05T07:40:38.869Z,18.26
2023-05-05T07:43:07.070Z,18.82
2023-05-05T07:45:35.053Z,18.61
2023-05-05T07:48:03.289Z,19.16
2023-05-05T07:50:31.403Z,19.15
2023-05-05T07:53:10.658Z,20.01
2023-05-05T07:55:42.764Z,20.02
2023-05-05T07:58:11.284Z,19.59
2023-05-05T08:00:39.942Z,20.07
2023-05-05T08:03:11.365Z,19.70
2023-05-05T08:05:40.820Z,19.53
2023-05-05T08:08:08.875Z,19.60
2023-05-05T08:10:37.178Z,20.29
2023-05-05T08:13:05.396Z,20.63
2023-05-05T08:15:33.707Z,20.86
2023-05-05T08:18:01.987Z,20.44
2023-05-05T08:20:31.554Z,21.07
2023-05-05T08:22:59.757Z,20.52
2023-05-05T08:25:27.983Z,21.40
2023-05-05T08:27:56.314Z,22.12
2023-05-05T08:30:24.459Z,21.88
2023-05-05T08:32:52.732Z,21.34
2023-05-05T08:35:21.439Z,21.35
2023-05-05T08:37:51.890Z,21.52
2023-05-05T08:40:25.687Z,21.86
2023-05-05T08:42:54.173Z,21.31
2023-05-05T08:45:22.287Z,21.35
2023-05-05T08:47:50.696Z,21.60
2023-05-05T08:50:21.654Z,22.23
2023-05-05T08:53:02.715Z,21.83
2023-05-05T08:55:39.088Z,20.85
2023-05-05T08:58:08.775Z,20.78
2023-05-05T09:00:37.182Z,20.97
2023-05-05T09:03:07.679Z,21.87
2023-05-05T09:05:36.776Z,22.16
2023-05-05T09:08:11.030Z,22.40
2023-05-05T09:10:43.119Z,22.64
2023-05-05T09:13:19.199Z,21.74
2023-05-05T09:15:47.604Z,22.68
2023-05-05T09:18:15.793Z,21.90
2023-05-05T09:20:43.780Z,22.51
2023-05-05T09:23:20.610Z,22.12
2023-05-05T09:26:05.163Z,22.72
2023-05-05T09:28:34.305Z,22.63
2023-05-05T09:31:16.378Z,22.40
2023-05-05T09:33:46.251Z,22.87
2023-05-05T09:36:14.441Z,23.64
2023-05-05T09:38:42.658Z,24.31
2023-05-05T09:41:10.862Z,24.79
2023-05-05T09:43:52.570Z,23.95
2023-05-05T09:46:21.354Z,20.84
2023-05-05T09:48:49.506Z,20.70
2023-05-05T09:51:29.975Z,21.22
2023-05-05T09:53:58.476Z,20.89
2023-05-05T09:56:41.060Z,21.48
2023-05-05T09:59:12.670Z,21.43
2023-05-05T10:01:43.850Z,20.94
2023-05-05T10:04:29.857Z,21.61
2023-05-05T10:06:59.167Z,21.91
2023-05-05T10:09:28.224Z,21.35
2023-05-05T10:11:58.091Z,21.93
2023-05-05T10:14:28.044Z,22.37
2023-05-05T10:16:57.143Z,23.60
2023-05-05T10:19:28.641Z,24.13
2023-05-05T10:22:03.797Z,22.83
2023-05-05T10:24:54.569Z,23.10
2023-05-05T10:27:26.977Z,22.91
2023-05-05T10:30:12.297Z,23.49
2023-05-05T10:33:09.091Z,23.19
2023-05-05T10:35:50.091Z,23.54
2023-05-05T10:38:20.198Z,23.78
2023-05-05T10:40:48.976Z,24.37
2023-05-05T10:43:18.182Z,24.97
2023-05-05T10:45:46.874Z,24.67
2023-05-05T10:48:43.064Z,24.27
2023-05-05T10:51:42.915Z,23.87
2023-05-05T10:54:38.773Z,23.82
2023-05-05T10:57:10.759Z,22.59
2023-05-05T10:59:38.978Z,22.51
2023-05-05T11:02:29.222Z,22.42
2023-05-05T11:05:21.885Z,22.49
2023-05-05T11:07:51.972Z,22.55
2023-05-05T11:10:23.137Z,22.62
2023-05-05T11:12:59.628Z,22.42
2023-05-05T11:15:30.957Z,21.91
2023-05-05T11:18:07.035Z,21.86
2023-05-05T11:20:37.252Z,21.58
2023-05-05T11:23:05.618Z,20.93
2023-05-05T11:25:37.620Z,20.69
2023-05-05T11:28:16.773Z,21.55
2023-05-05T11:31:20.951Z,21.78
2023-05-05T11:33:50.124Z,21.83
2023-05-05T11:36:20.524Z,21.88
2023-05-05T11:39:39.541Z,21.79
2023-05-05T11:42:26.938Z,22.45
2023-05-05T11:44:55.749Z,22.96
2023-05-05T11:47:26.544Z,22.92
2023-05-05T11:49:55.711Z,23.28
2023-05-05T11:52:30.093Z,23.82
2023-05-05T11:55:01.956Z,23.95
2023-05-05T11:57:31.096Z,23.88
2023-05-05T12:00:05.757Z,24.87
2023-05-05T12:02:35.070Z,24.84
2023-05-05T12:05:03.721Z,25.43
2023-05-05T12:07:33.943Z,25.29
2023-05-05T12:10:02.452Z,26.33
2023-05-05T12:12:40.239Z,25.98
2023-05-05T12:15:10.060Z,26.15
2023-05-05T12:17:45.124Z,26.51
2023-05-05T12:20:13.814Z,26.90
2023-05-05T12:22:42.492Z,26.17
2023-05-05T12:25:11.245Z,26.25
2023-05-05T12:27:40.183Z,25.70
2023-05-05T12:30:18.246Z,25.78
2023-05-05T12:32:47.137Z,25.67
2023-05-05T12:35:16.214Z,25.20
2023-05-05T12:37:45.700Z,24.73
2023-05-05T12:40:54.122Z,24.48
2023-05-05T12:43:34.314Z,24.45
2023-05-05T12:46:10.387Z,24.34
2023-05-05T12:48:41.583Z,23.31
2023-05-05T12:51:25.729Z,22.51
2023-05-05T12:54:12.923Z,22.84
2023-05-05T12:56:47.544Z,22.34
2023-05-05T12:59:24.575Z,22.23
2023-05-05T13:01:54.534Z,22.08
2023-05-05T13:04:28.131Z,22.05
2023-05-05T13:07:14.871Z,22.19
2023-05-05T13:09:43.882Z,22.02
2023-05-05T13:12:12.628Z,22.03
2023-05-05T13:14:42.135Z,22.14
2023-05-05T13:17:12.072Z,21.93
2023-05-05T13:19:46.836Z,21.88
2023-05-05T13:22:15.649Z,21.36
2023-05-05T13:24:51.913Z,21.53
2023-05-05T13:27:21.450Z,21.69
2023-05-05T13:29:49.792Z,21.75
2023-05-05T13:32:17.658Z,21.75
2023-05-05T13:34:45.939Z,21.80
2023-05-05T13:37:14.217Z,21.44
2023-05-05T13:39:42.138Z,21.35
2023-05-05T13:42:10.458Z,20.75
2023-05-05T13:44:38.730Z,20.85
2023-05-05T13:47:07.037Z,20.75
2023-05-05T13:49:36.238Z,20.29
2023-05-05T13:52:04.581Z,20.06
2023-05-05T13:54:33.013Z,20.32
2023-05-05T13:57:01.451Z,20.48
2023-05-05T13:59:30.155Z,20.45
2023-05-05T14:01:59.032Z,20.24
2023-05-05T14:04:27.217Z,20.49
2023-05-05T14:06:55.107Z,20.72
2023-05-05T14:09:23.833Z,20.70
2023-05-05T14:11:52.373Z,20.79
2023-05-05T14:14:20.400Z,20.97
2023-05-05T14:16:50.139Z,20.75
2023-05-05T14:19:18.694Z,20.12
2023-05-05T14:21:46.854Z,20.13
2023-05-05T14:24:15.454Z,20.42
2023-05-05T14:26:43.830Z,20.56
2023-05-05T14:29:12.134Z,20.65
2023-05-05T14:31:40.234Z,20.81
2023-05-05T14:34:08.331Z,20.98
2023-05-05T14:36:36.348Z,20.90
2023-05-05T14:39:04.465Z,20.83
2023-05-05T14:41:32.892Z,20.57
2023-05-05T14:44:01.619Z,20.54
2023-05-05T14:46:30.580Z,20.46
2023-05-05T14:48:59.120Z,20.59
2023-05-05T14:51:27.135Z,20.15
2023-05-05T14:53:55.337Z,20.05
2023-05-05T14:56:24.569Z,19.86
2023-05-05T14:58:53.265Z,19.77
2023-05-05T15:01:21.345Z,19.82
2023-05-05T15:03:49.957Z,19.80
2023-05-05T15:06:18.210Z,19.84
2023-05-05T15:08:46.096Z,19.97
2023-05-05T15:11:14.264Z,19.69
2023-05-05T15:13:42.095Z,19.73
2023-05-05T15:16:10.697Z,19.59
2023-05-05T15:18:38.962Z,19.36
2023-05-05T15:21:07.096Z,19.55
2023-05-05T15:23:35.568Z,19.61
2023-05-05T15:26:04.683Z,19.33
2023-05-05T15:28:32.884Z,19.30
2023-05-05T15:31:02.272Z,19.20
2023-05-05T15:33:31.240Z,19.01
2023-05-05T15:35:59.706Z,19.24
2023-05-05T15:38:29.164Z,19.33
2023-05-05T15:40:57.659Z,19.48
2023-05-05T15:43:25.866Z,19.72
2023-05-05T15:45:54.834Z,19.99
2023-05-05T15:48:23.237Z,19.76
2023-05-05T15:50:51.426Z,19.79
2023-05-05T15:53:19.520Z,19.51
2023-05-05T15:55:47.847Z,19.93
2023-05-05T15:58:15.896Z,20.01
2023-05-05T16:00:43.936Z,20.16
2023-05-05T16:03:12.355Z,20.02
2023-05-05T16:05:41.974Z,19.86
2023-05-05T16:08:11.035Z,19.59
2023-05-05T16:10:39.513Z,19.27
2023-05-05T16:13:07.888Z,19.11
2023-05-05T16:15:35.949Z,18.84
2023-05-05T16:18:05.599Z,18.73
2023-05-05T16:20:33.741Z,18.80
2023-05-05T16:23:01.632Z,18.71
2023-05-05T16:25:30.404Z,18.57
2023-05-05T16:28:00.237Z,18.62
2023-05-05T16:30:29.365Z,18.65
2023-05-05T16:32:58.475Z,18.68
2023-05-05T16:35:28.055Z,18.69
2023-05-05T16:37:56.682Z,18.56
2023-05-05T16:40:24.985Z,18.51
2023-05-05T16:42:53.455Z,18.28
2023-05-05T16:45:21.777Z,18.21
2023-05-05T16:47:50.689Z,18.01
2023-05-05T16:50:19.286Z,18.26
2023-05-05T16:52:47.802Z,18.38
2023-05-05T16:55:16.604Z,18.70
2023-05-05T16:57:44.984Z,18.45
2023-05-05T17:00:13.908Z,18.33
2023-05-05T17:02:42.030Z,17.68
2023-05-05T17:05:10.837Z,17.15
2023-05-05T17:07:39.192Z,16.81
2023-05-05T17:10:08.684Z,16.59
2023-05-05T17:12:36.900Z,16.65
2023-05-05T17:15:06.368Z,16.36
2023-05-05T17:17:34.891Z,16.02
2023-05-05T17:20:04.752Z,15.82
2023-05-05T17:22:34.597Z,15.59
2023-05-05T17:25:04.484Z,15.51
2023-05-05T17:27:33.097Z,15.43
2023-05-05T17:30:01.443Z,15.27
2023-05-05T17:32:30.522Z,15.14
2023-05-05T17:34:58.780Z,15.29
2023-05-05T17:37:27.573Z,15.15
2023-05-05T17:39:56.260Z,15.03
2023-05-05T17:42:27.119Z,14.89
2023-05-05T17:44:55.466Z,14.70
2023-05-05T17:47:24.787Z,14.43
2023-05-05T17:49:55.344Z,14.42
2023-05-05T17:52:24.425Z,14.27
2023-05-05T17:54:53.040Z,14.13
2023-05-05T17:57:21.432Z,13.97
2023-05-05T17:59:50.604Z,13.94
2023-05-05T18:02:19.616Z,13.78
2023-05-05T18:04:48.099Z,13.74
2023-05-05T18:07:16.274Z,13.67
2023-05-05T18:09:46.385Z,13.59
2023-05-05T18:12:14.854Z,13.52
2023-05-05T18:14:43.440Z,13.41
2023-05-05T18:17:12.885Z,13.33
2023-05-05T18:19:49.135Z,13.23
2023-05-05T18:22:18.529Z,13.15
2023-05-05T18:24:47.440Z,13.12
2023-05-05T18:27:15.720Z,12.93
2023-05-05T18:29:44.123Z,12.93
2023-05-05T18:32:12.345Z,12.84
2023-05-05T18:34:40.800Z,12.87
2023-05-05T18:37:09.390Z,12.79
2023-05-05T18:39:38.487Z,12.76
2023-05-05T18:42:08.144Z,12.63
2023-05-05T18:44:37.195Z,12.54
2023-05-05T18:47:05.489Z,12.54
2023-05-05T18:49:34.051Z,12.50
2023-05-05T18:52:03.343Z,12.50
2023-05-05T18:54:31.878Z,12.42
2023-05-05T18:57:00.321Z,12.30
2023-05-05T18:59:29.235Z,12.27
2023-05-05T19:01:57.474Z,12.23
2023-05-05T19:04:31.392Z,12.07
2023-05-05T19:07:00.641Z,12.05
2023-05-05T19:09:29.210Z,12.06
2023-05-05T19:11:57.778Z,11.96
2023-05-05T19:14:26.348Z,12.00
2023-05-05T19:16:56.143Z,11.88
2023-05-05T19:19:26.003Z,11.77
2023-05-05T19:21:55.255Z,11.77
2023-05-05T19:24:23.458Z,11.59
2023-05-05T19:26:51.901Z,11.52
2023-05-05T19:29:20.358Z,11.45
2023-05-05T19:31:49.599Z,11.33
2023-05-05T19:34:17.915Z,11.31
2023-05-05T19:36:46.596Z,11.24
2023-05-05T19:39:18.780Z,11.21
2023-05-05T19:41:47.331Z,11.15
2023-05-05T19:44:16.581Z,11.11
2023-05-05T19:46:45.011Z,10.92
2023-05-05T19:49:13.242Z,10.87
2023-05-05T19:51:42.337Z,10.81
2023-05-05T19:54:11.197Z,10.74
2023-05-05T19:56:40.698Z,10.72
2023-05-05T19:59:09.342Z,10.71
2023-05-05T20:01:37.510Z,10.66
2023-05-05T20:04:06.260Z,10.57
2023-05-05T20:06:35.223Z,10.54
2023-05-05T20:09:05.566Z,10.56
2023-05-05T20:11:34.234Z,10.49
2023-05-05T20:14:05.384Z,10.39
2023-05-05T20:16:34.752Z,10.45
2023-05-05T20:19:03.106Z,10.50
2023-05-05T20:21:31.273Z,10.47
2023-05-05T20:24:00.419Z,10.45
2023-05-05T20:26:28.949Z,10.49
2023-05-05T20:28:57.332Z,10.46
2023-05-05T20:31:25.647Z,10.38
2023-05-05T20:33:54.236Z,10.33
2023-05-05T20:36:23.004Z,10.34
2023-05-05T20:38:52.000Z,10.31
2023-05-05T20:41:20.452Z,10.24
2023-05-05T20:43:49.649Z,10.12
2023-05-05T20:46:17.920Z,10.13
2023-05-05T20:48:46.748Z,10.03
2023-05-05T20:51:14.739Z,10.01
2023-05-05T20:53:42.960Z,9.85
2023-05-05T20:56:11.470Z,9.86
2023-05-05T20:58:39.888Z,9.80
2023-05-05T21:01:09.386Z,9.75
2023-05-05T21:03:37.696Z,9.71
2023-05-05T21:06:06.343Z,9.64
2023-05-05T21:08:34.408Z,9.59
2023-05-05T21:11:03.177Z,9.56
2023-05-05T21:13:32.301Z,9.54
2023-05-05T21:16:00.665Z,9.54
2023-05-05T21:18:29.125Z,9.50
2023-05-05T21:20:57.096Z,9.47
2023-05-05T21:23:25.362Z,9.39
2023-05-05T21:25:53.763Z,9.31
2023-05-05T21:28:21.886Z,9.26
2023-05-05T21:33:24.900Z,9.08
2023-05-05T21:35:53.295Z,9.13
2023-05-05T21:38:21.443Z,9.12
2023-05-05T21:40:50.883Z,9.07
2023-05-05T21:43:19.232Z,9.01
2023-05-05T21:45:47.216Z,8.92
2023-05-05T21:48:15.403Z,8.91
2023-05-05T21:50:43.383Z,8.89
2023-05-05T21:53:11.321Z,8.87
2023-05-05T21:55:39.526Z,8.75
2023-05-05T21:58:07.660Z,8.78
2023-05-05T22:00:35.807Z,8.78
2023-05-05T22:03:04.898Z,8.83
2023-05-05T22:05:32.965Z,8.84
2023-05-05T22:08:00.957Z,8.81
2023-05-05T22:10:29.310Z,8.78
2023-05-05T22:12:58.243Z,8.74
2023-05-05T22:15:30.029Z,8.75
2023-05-05T22:18:01.186Z,8.73
2023-05-05T22:20:32.560Z,8.68
2023-05-05T22:23:00.941Z,8.64
2023-05-05T22:25:29.202Z,8.61
2023-05-05T22:27:57.796Z,8.65
2023-05-05T22:30:27.605Z,8.58
2023-05-05T22:32:55.717Z,8.56
2023-05-05T22:35:23.889Z,8.54
2023-05-05T22:37:52.011Z,8.48
2023-05-05T22:40:20.180Z,8.47
2023-05-05T22:42:48.206Z,8.49
2023-05-05T22:45:16.690Z,8.49
2023-05-05T22:47:44.861Z,8.43
2023-05-05T22:50:12.999Z,8.44
2023-05-05T22:52:41.169Z,8.43
2023-05-05T22:55:09.840Z,8.47
2023-05-05T22:57:38.171Z,8.45
2023-05-05T23:00:11.123Z,8.41
2023-05-05T23:02:39.974Z,8.42
2023-05-05T23:05:08.676Z,8.46
2023-05-05T23:07:37.092Z,8.40
2023-05-05T23:10:06.067Z,8.37
2023-05-05T23:12:34.239Z,8.33
2023-05-05T23:15:02.516Z,8.27
2023-05-05T23:17:30.518Z,8.27
2023-05-05T23:19:58.833Z,8.27
2023-05-05T23:22:26.915Z,8.25
2023-05-05T23:24:54.796Z,8.20
2023-05-05T23:27:23.863Z,8.16
2023-05-05T23:29:51.839Z,8.12
2023-05-05T23:32:20.163Z,8.05
2023-05-05T23:34:48.365Z,8.06
2023-05-05T23:37:16.337Z,8.07
2023-05-05T23:39:44.219Z,8.00
2023-05-05T23:42:12.274Z,7.95
2023-05-05T23:44:40.490Z,7.91
2023-05-05T23:47:08.370Z,7.87
2023-05-05T23:49:36.797Z,7.85
2023-05-05T23:52:05.065Z,7.85
2023-05-05T23:54:32.963Z,7.86
2023-05-05T23:57:02.363Z,7.86
2023-05-05T23:59:30.878Z,7.83
